createdAt,value
2022-12-11T00:00:25.824Z,34.13
2022-12-11T00:02:53.149Z,40.10
2022-12-11T00:05:20.416Z,37.28
2022-12-11T00:07:47.683Z,31.50
2022-12-11T00:10:14.896Z,35.20
2022-12-11T00:12:42.129Z,34.83
2022-12-11T00:15:09.813Z,35.72
2022-12-11T00:17:38.817Z,36.05
2022-12-11T00:20:06.293Z,37.22
2022-12-11T00:22:33.542Z,33.22
2022-12-11T00:25:00.821Z,38.80
2022-12-11T00:27:28.286Z,37.55
2022-12-11T00:29:55.534Z,37.20
2022-12-11T00:32:22.927Z,37.35
2022-12-11T00:34:50.217Z,42.95
2022-12-11T00:37:17.556Z,40.30
2022-12-11T00:39:46.123Z,40.28
2022-12-11T00:42:13.357Z,40.33
2022-12-11T00:44:40.644Z,40.72
2022-12-11T00:47:08.488Z,41.83
2022-12-11T00:49:35.706Z,41.88
2022-12-11T00:52:03.008Z,45.30
2022-12-11T00:54:30.362Z,38.42
2022-12-11T00:56:57.656Z,37.45
2022-12-11T00:59:24.906Z,37.92
2022-12-11T01:01:52.251Z,36.42
2022-12-11T01:04:19.441Z,32.08
2022-12-11T01:06:46.683Z,36.33
2022-12-11T01:09:35.125Z,40.95
2022-12-11T01:12:02.453Z,39.28
2022-12-11T01:14:29.723Z,35.30
2022-12-11T01:16:57.584Z,34.47
2022-12-11T01:19:25.075Z,38.13
2022-12-11T01:21:52.312Z,34.60
2022-12-11T01:24:19.759Z,39.47
2022-12-11T01:26:46.995Z,40.63
2022-12-11T01:29:14.375Z,36.38
2022-12-11T01:31:41.969Z,36.75
2022-12-11T01:34:09.288Z,38.10
2022-12-11T01:36:36.653Z,35.92
2022-12-11T01:39:04.001Z,34.88
2022-12-11T01:41:33.912Z,36.97
2022-12-11T01:44:03.296Z,35.03
2022-12-11T01:46:31.612Z,36.10
2022-12-11T01:48:59.572Z,32.47
2022-12-11T01:51:27.398Z,31.55
2022-12-11T01:53:59.059Z,35.75
2022-12-11T01:56:26.376Z,29.80
2022-12-11T01:58:56.951Z,32.55
2022-12-11T02:01:45.957Z,32.88
2022-12-11T02:04:15.397Z,32.20
2022-12-11T02:06:46.718Z,32.65
2022-12-11T02:09:17.891Z,32.92
2022-12-11T02:11:54.374Z,30.98
2022-12-11T02:14:29.634Z,31.83
2022-12-11T02:17:01.557Z,32.25
2022-12-11T02:19:40.151Z,32.72
2022-12-11T02:22:09.846Z,32.65
2022-12-11T02:27:23.332Z,32.10
2022-12-11T02:29:56.353Z,33.20
2022-12-11T02:32:27.019Z,33.63
2022-12-11T02:34:54.254Z,31.02
2022-12-11T02:37:23.949Z,31.13
2022-12-11T02:39:52.605Z,29.33
2022-12-11T02:42:20.733Z,34.55
2022-12-11T02:44:49.567Z,30.10
2022-12-11T02:47:18.226Z,25.03
2022-12-11T02:49:47.950Z,29.15
2022-12-11T02:52:19.680Z,28.08
2022-12-11T02:54:47.678Z,28.63
2022-12-11T02:57:14.940Z,29.70
2022-12-11T02:59:43.368Z,33.53
2022-12-11T03:02:11.873Z,34.33
2022-12-11T03:04:39.114Z,30.00
2022-12-11T03:07:14.558Z,29.00
2022-12-11T03:09:43.218Z,29.30
2022-12-11T03:12:12.378Z,27.02
2022-12-11T03:14:41.243Z,26.90
2022-12-11T03:17:14.842Z,28.40
2022-12-11T03:19:51.237Z,26.63
2022-12-11T03:22:32.094Z,24.27
2022-12-11T03:25:03.182Z,24.30
2022-12-11T03:27:33.967Z,24.67
2022-12-11T03:30:03.375Z,22.77
2022-12-11T03:32:33.058Z,23.40
2022-12-11T03:35:09.814Z,20.50
2022-12-11T03:37:37.982Z,22.27
2022-12-11T03:40:12.746Z,21.08
2022-12-11T03:42:41.072Z,19.02
2022-12-11T03:45:09.076Z,19.30
2022-12-11T03:47:37.606Z,21.60
2022-12-11T03:50:06.437Z,20.67
2022-12-11T03:52:34.193Z,20.97
2022-12-11T03:55:02.420Z,21.27
2022-12-11T03:57:35.929Z,20.95
2022-12-11T04:00:05.046Z,23.10
2022-12-11T04:02:39.224Z,22.33
2022-12-11T04:05:06.721Z,21.08
2022-12-11T04:07:33.938Z,21.75
2022-12-11T04:10:01.284Z,21.60
2022-12-11T04:12:28.543Z,23.38
2022-12-11T04:15:01.888Z,21.75
2022-12-11T04:17:48.549Z,22.80
2022-12-11T04:20:34.304Z,22.63
2022-12-11T04:23:20.066Z,22.35
2022-12-11T04:25:47.350Z,20.80
2022-12-11T04:28:14.622Z,23.30
2022-12-11T04:30:42.016Z,24.02
2022-12-11T04:33:09.317Z,22.80
2022-12-11T04:35:36.927Z,23.08
2022-12-11T04:38:04.460Z,22.60
2022-12-11T04:40:31.704Z,25.23
2022-12-11T04:42:59.057Z,22.10
2022-12-11T04:45:26.310Z,24.13
2022-12-11T04:47:53.580Z,22.25
2022-12-11T04:50:20.858Z,27.25
2022-12-11T04:52:48.070Z,25.70
2022-12-11T04:55:15.349Z,26.95
2022-12-11T04:57:42.606Z,22.95
2022-12-11T05:00:11.190Z,27.48
2022-12-11T05:02:38.909Z,26.45
2022-12-11T05:05:07.448Z,27.15
2022-12-11T05:07:34.822Z,24.98
2022-12-11T05:10:02.369Z,29.45
2022-12-11T05:12:29.719Z,27.27
2022-12-11T05:14:57.031Z,27.65
2022-12-11T05:17:24.296Z,25.85
2022-12-11T05:19:52.396Z,24.92
2022-12-11T05:22:22.669Z,28.10
2022-12-11T05:24:49.927Z,25.25
2022-12-11T05:27:17.153Z,25.33
2022-12-11T05:29:44.523Z,27.30
2022-12-11T05:32:11.737Z,25.50
2022-12-11T05:34:39.094Z,25.95
2022-12-11T05:37:06.378Z,26.83
2022-12-11T05:39:33.613Z,26.52
2022-12-11T05:42:00.897Z,25.45
2022-12-11T05:44:28.193Z,26.73
2022-12-11T05:46:55.509Z,27.35
2022-12-11T05:49:29.000Z,24.58
2022-12-11T05:51:57.975Z,24.77
2022-12-11T05:54:25.605Z,27.95
2022-12-11T05:56:52.823Z,24.13
2022-12-11T05:59:20.230Z,27.17
2022-12-11T06:01:47.612Z,27.48
2022-12-11T06:04:15.431Z,26.13
2022-12-11T06:06:43.898Z,23.85
2022-12-11T06:09:15.817Z,27.02
2022-12-11T06:11:43.304Z,25.15
2022-12-11T06:14:11.008Z,24.58
2022-12-11T06:16:38.653Z,24.73
2022-12-11T06:19:06.053Z,23.75
2022-12-11T06:21:34.774Z,23.25
2022-12-11T06:24:03.644Z,24.20
2022-12-11T06:26:34.311Z,22.38
2022-12-11T06:29:01.520Z,23.40
2022-12-11T06:31:29.029Z,21.13
2022-12-11T06:33:58.611Z,22.48
2022-12-11T06:36:26.109Z,23.20
2022-12-11T06:38:56.722Z,23.08
2022-12-11T06:41:24.013Z,23.60
2022-12-11T06:43:51.311Z,20.10
2022-12-11T06:46:20.324Z,24.42
2022-12-11T06:48:48.380Z,21.70
2022-12-11T06:51:16.736Z,22.48
2022-12-11T06:53:44.152Z,21.77
2022-12-11T06:56:13.117Z,23.80
2022-12-11T06:58:40.975Z,19.05
2022-12-11T07:01:18.945Z,20.85
2022-12-11T07:03:46.722Z,21.45
2022-12-11T07:06:15.840Z,23.73
2022-12-11T07:08:43.697Z,22.15
2022-12-11T07:11:12.582Z,21.58
2022-12-11T07:13:42.001Z,15.17
2022-12-11T07:16:12.596Z,22.88
2022-12-11T07:18:41.414Z,21.45
2022-12-11T07:21:09.119Z,21.20
2022-12-11T07:23:36.503Z,20.13
2022-12-11T07:26:07.244Z,20.08
2022-12-11T07:28:35.118Z,23.13
2022-12-11T07:31:06.504Z,22.48
2022-12-11T07:33:33.849Z,21.10
2022-12-11T07:36:02.737Z,22.05
2022-12-11T07:38:33.381Z,20.60
2022-12-11T07:41:05.345Z,23.23
2022-12-11T07:43:32.750Z,22.73
2022-12-11T07:46:07.432Z,26.52
2022-12-11T07:48:40.623Z,23.65
2022-12-11T07:51:17.981Z,21.60
2022-12-11T07:53:45.818Z,24.20
2022-12-11T07:56:13.115Z,24.33
2022-12-11T07:58:40.437Z,21.80
2022-12-11T08:01:12.211Z,26.02
2022-12-11T08:03:40.713Z,26.17
2022-12-11T08:06:08.063Z,24.48
2022-12-11T08:08:35.361Z,25.08
2022-12-11T08:11:03.643Z,23.50
2022-12-11T08:13:30.955Z,25.90
2022-12-11T08:15:58.399Z,24.73
2022-12-11T08:18:26.008Z,26.40
2022-12-11T08:20:53.317Z,22.83
2022-12-11T08:23:20.568Z,20.50
2022-12-11T08:25:47.893Z,26.27
2022-12-11T08:28:15.198Z,23.52
2022-12-11T08:30:42.524Z,24.42
2022-12-11T08:33:09.920Z,29.75
2022-12-11T08:35:39.827Z,25.65
2022-12-11T08:38:09.125Z,25.60
2022-12-11T08:40:36.547Z,27.35
2022-12-11T08:43:04.238Z,25.75
2022-12-11T08:45:34.026Z,26.27
2022-12-11T08:50:28.547Z,27.00
2022-12-11T08:52:55.943Z,24.25
2022-12-11T08:55:23.225Z,26.25
2022-12-11T08:57:50.780Z,27.42
2022-12-11T09:00:18.719Z,27.65
2022-12-11T09:02:48.387Z,27.27
2022-12-11T09:07:42.846Z,27.33
2022-12-11T09:10:10.428Z,29.80
2022-12-11T09:12:38.027Z,23.05
2022-12-11T09:15:05.738Z,24.45
2022-12-11T09:17:34.425Z,23.33
2022-12-11T09:20:01.778Z,23.50
2022-12-11T09:22:30.548Z,23.05
2022-12-11T09:24:57.724Z,22.03
2022-12-11T09:27:25.016Z,26.73
2022-12-11T09:29:52.227Z,25.42
2022-12-11T09:32:19.513Z,26.08
2022-12-11T09:34:46.775Z,26.45
2022-12-11T09:37:14.098Z,26.83
2022-12-11T09:39:41.326Z,26.92
2022-12-11T09:42:27.527Z,29.08
2022-12-11T09:44:56.562Z,25.02
2022-12-11T09:47:41.563Z,24.92
2022-12-11T09:50:12.014Z,24.30
2022-12-11T09:52:45.158Z,25.25
2022-12-11T09:55:20.947Z,28.70
2022-12-11T09:58:02.868Z,26.30
2022-12-11T10:00:32.926Z,25.73
2022-12-11T10:03:00.962Z,23.42
2022-12-11T10:05:38.284Z,27.23
2022-12-11T10:08:20.933Z,26.83
2022-12-11T10:10:56.119Z,27.83
2022-12-11T10:13:23.431Z,25.17
2022-12-11T10:16:17.151Z,28.52
2022-12-11T10:18:44.530Z,30.15
2022-12-11T10:21:12.942Z,25.35
2022-12-11T10:24:00.495Z,25.42
2022-12-11T10:26:28.746Z,26.73
2022-12-11T10:28:59.827Z,27.40
2022-12-11T10:31:40.043Z,25.92
2022-12-11T10:34:13.829Z,27.00
2022-12-11T10:36:42.350Z,27.95
2022-12-11T10:39:16.919Z,27.50
2022-12-11T10:41:45.538Z,25.30
2022-12-11T10:44:32.999Z,27.02
2022-12-11T10:47:10.352Z,24.63
2022-12-11T10:49:38.696Z,24.58
2022-12-11T10:52:13.984Z,24.40
2022-12-11T10:54:42.349Z,24.27
2022-12-11T10:57:10.481Z,23.52
2022-12-11T10:59:44.617Z,23.55
2022-12-11T11:02:29.206Z,24.95
2022-12-11T11:04:57.252Z,24.55
2022-12-11T11:07:26.082Z,23.38
2022-12-11T11:10:06.006Z,25.03
2022-12-11T11:12:37.971Z,21.95
2022-12-11T11:15:13.601Z,26.90
2022-12-11T11:17:54.226Z,25.75
2022-12-11T11:20:27.389Z,23.83
2022-12-11T11:22:56.145Z,23.63
2022-12-11T11:25:27.199Z,23.52
2022-12-11T11:28:05.438Z,23.55
2022-12-11T11:30:35.221Z,22.52
2022-12-11T11:35:30.892Z,21.33
2022-12-11T11:38:10.395Z,23.83
2022-12-11T11:40:39.148Z,23.25
2022-12-11T11:43:38.669Z,22.57
2022-12-11T11:46:08.955Z,20.75
2022-12-11T11:48:49.491Z,23.52
2022-12-11T11:51:24.610Z,23.52
2022-12-11T11:53:55.247Z,24.83
2022-12-11T11:56:32.138Z,22.13
2022-12-11T11:59:17.915Z,19.25
2022-12-11T12:01:45.560Z,23.45
2022-12-11T12:04:13.189Z,24.65
2022-12-11T12:06:52.508Z,21.58
2022-12-11T12:09:22.810Z,23.52
2022-12-11T12:11:54.192Z,24.20
2022-12-11T12:17:17.955Z,24.27
2022-12-11T12:20:04.260Z,26.05
2022-12-11T12:22:53.287Z,23.27
2022-12-11T12:25:20.691Z,20.42
2022-12-11T12:27:57.930Z,21.25
2022-12-11T12:30:25.172Z,25.15
2022-12-11T12:32:59.130Z,22.70
2022-12-11T12:35:40.913Z,25.38
2022-12-11T12:38:13.710Z,23.45
2022-12-11T12:40:48.825Z,24.08
2022-12-11T12:43:37.598Z,27.23
2022-12-11T12:46:24.042Z,24.45
2022-12-11T12:48:52.554Z,24.88
2022-12-11T12:51:20.091Z,25.50
2022-12-11T12:53:53.359Z,21.75
2022-12-11T12:56:21.315Z,24.90
2022-12-11T12:58:48.895Z,25.35
2022-12-11T13:01:19.388Z,27.05
2022-12-11T13:03:51.751Z,23.85
2022-12-11T13:06:29.478Z,22.90
2022-12-11T13:08:57.128Z,24.58
2022-12-11T13:11:32.421Z,26.95
2022-12-11T13:14:02.676Z,23.88
2022-12-11T13:16:38.333Z,25.35
2022-12-11T13:19:17.136Z,23.15
2022-12-11T13:21:55.331Z,25.23
2022-12-11T13:24:22.567Z,25.25
2022-12-11T13:26:52.572Z,24.80
2022-12-11T13:29:33.605Z,26.98
2022-12-11T13:32:03.982Z,23.50
2022-12-11T13:34:36.383Z,24.95
2022-12-11T13:37:04.685Z,26.83
2022-12-11T13:39:36.034Z,25.58
2022-12-11T13:42:10.833Z,23.42
2022-12-11T13:44:42.309Z,27.55
2022-12-11T13:47:13.315Z,24.83
2022-12-11T13:49:42.062Z,28.17
2022-12-11T13:52:17.975Z,28.53
2022-12-11T13:54:49.412Z,24.42
2022-12-11T13:57:21.139Z,24.65
2022-12-11T13:59:49.620Z,27.85
2022-12-11T14:02:25.883Z,31.73
2022-12-11T14:04:55.668Z,25.10
2022-12-11T14:09:50.050Z,28.92
2022-12-11T14:12:19.263Z,26.67
2022-12-11T14:14:50.472Z,26.52
2022-12-11T14:17:25.300Z,24.75
2022-12-11T14:19:55.396Z,26.08
2022-12-11T14:22:31.799Z,25.60
2022-12-11T14:25:05.424Z,20.47
2022-12-11T14:27:32.747Z,24.88
2022-12-11T14:30:10.432Z,24.98
2022-12-11T14:32:42.779Z,26.83
2022-12-11T14:35:25.104Z,24.85
2022-12-11T14:37:53.151Z,26.08
2022-12-11T14:40:22.476Z,23.73
2022-12-11T14:43:00.176Z,28.30
2022-12-11T14:45:36.962Z,30.13
2022-12-11T14:48:06.279Z,32.67
2022-12-11T14:50:38.795Z,27.98
2022-12-11T14:53:11.351Z,43.78
2022-12-11T14:55:39.076Z,33.78
2022-12-11T14:58:12.830Z,28.83
2022-12-11T15:00:40.029Z,32.47
2022-12-11T15:03:13.465Z,28.63
2022-12-11T15:05:49.938Z,26.95
2022-12-11T15:08:24.625Z,32.25
2022-12-11T15:10:58.292Z,38.03
2022-12-11T15:13:26.022Z,34.92
2022-12-11T15:15:53.799Z,40.80
2022-12-11T15:18:26.438Z,43.50
2022-12-11T15:20:54.595Z,36.50
2022-12-11T15:23:21.980Z,25.92
2022-12-11T15:25:53.035Z,28.45
2022-12-11T15:28:26.952Z,26.50
2022-12-11T15:30:58.944Z,31.65
2022-12-11T15:33:31.144Z,29.15
2022-12-11T15:36:06.087Z,26.40
2022-12-11T15:38:35.099Z,53.20
2022-12-11T15:41:03.308Z,28.27
2022-12-11T15:43:32.383Z,38.63
2022-12-11T15:46:00.007Z,32.78
2022-12-11T15:48:27.383Z,28.75
2022-12-11T15:50:57.243Z,31.58
2022-12-11T15:53:24.505Z,33.67
2022-12-11T15:55:51.806Z,27.58
2022-12-11T15:58:24.247Z,35.72
2022-12-11T16:00:51.931Z,32.60
2022-12-11T16:03:20.213Z,41.25
2022-12-11T16:05:47.621Z,25.90
2022-12-11T16:08:16.382Z,28.52
2022-12-11T16:10:44.151Z,33.42
2022-12-11T16:13:12.114Z,30.42
2022-12-11T16:15:41.283Z,27.08
2022-12-11T16:18:13.254Z,42.70
2022-12-11T16:20:41.286Z,28.73
2022-12-11T16:23:09.172Z,49.78
2022-12-11T16:25:40.928Z,27.52
2022-12-11T16:28:09.481Z,27.25
2022-12-11T16:30:37.866Z,45.75
2022-12-11T16:33:12.050Z,39.35
2022-12-11T16:35:40.327Z,34.58
2022-12-11T16:38:08.228Z,31.23
2022-12-11T16:40:35.528Z,33.65
2022-12-11T16:43:03.788Z,52.65
2022-12-11T16:45:33.961Z,34.80
2022-12-11T16:48:04.941Z,32.50
2022-12-11T16:50:32.444Z,25.35
2022-12-11T16:52:59.878Z,31.00
2022-12-11T16:55:27.285Z,23.83
2022-12-11T16:57:55.199Z,28.27
2022-12-11T17:00:22.778Z,32.60
2022-12-11T17:02:52.281Z,26.92
2022-12-11T17:07:46.985Z,22.90
2022-12-11T17:10:14.486Z,22.65
2022-12-11T17:12:41.854Z,23.27
2022-12-11T17:15:10.275Z,32.83
2022-12-11T17:17:38.082Z,29.05
2022-12-11T17:20:05.574Z,26.10
2022-12-11T17:22:32.882Z,33.75
2022-12-11T17:25:00.124Z,25.30
2022-12-11T17:27:27.416Z,28.98
2022-12-11T17:29:54.779Z,27.65
2022-12-11T17:32:22.025Z,34.72
2022-12-11T17:34:50.707Z,28.55
2022-12-11T17:37:18.612Z,26.67
2022-12-11T17:39:47.295Z,27.65
2022-12-11T17:42:14.729Z,17.75
2022-12-11T17:44:42.134Z,26.25
2022-12-11T17:47:12.021Z,24.50
2022-12-11T17:49:40.500Z,23.65
2022-12-11T17:52:07.935Z,25.98
2022-12-11T17:54:35.451Z,24.90
2022-12-11T17:57:02.732Z,22.38
2022-12-11T17:59:30.047Z,25.70
2022-12-11T18:01:57.758Z,29.85
2022-12-11T18:04:25.182Z,25.90
2022-12-11T18:06:53.891Z,28.48
2022-12-11T18:09:28.482Z,33.45
2022-12-11T18:11:55.919Z,33.28
2022-12-11T18:14:23.315Z,28.45
2022-12-11T18:16:52.132Z,27.50
2022-12-11T18:19:22.811Z,26.23
2022-12-11T18:21:50.441Z,26.33
2022-12-11T18:24:17.673Z,24.67
2022-12-11T18:26:44.935Z,26.63
2022-12-11T18:29:12.359Z,30.90
2022-12-11T18:31:42.898Z,24.80
2022-12-11T18:34:10.824Z,27.50
2022-12-11T18:36:40.746Z,27.25
2022-12-11T18:39:08.409Z,24.55
2022-12-11T18:41:35.815Z,30.92
2022-12-11T18:44:09.345Z,32.67
2022-12-11T18:50:44.066Z,33.38
2022-12-11T18:53:11.747Z,25.50
2022-12-11T18:55:46.315Z,28.13
2022-12-11T18:58:14.406Z,26.30
2022-12-11T19:00:42.588Z,28.17
2022-12-11T19:03:10.588Z,29.55
2022-12-11T19:05:42.334Z,31.50
2022-12-11T19:08:10.329Z,26.58
2022-12-11T19:10:47.234Z,29.50
2022-12-11T19:13:14.646Z,24.08
2022-12-11T19:15:42.807Z,24.17
2022-12-11T19:18:10.568Z,23.20
2022-12-11T19:21:04.666Z,21.58
2022-12-11T19:23:26.685Z,16.83
2022-12-11T19:25:54.015Z,18.77
2022-12-11T19:28:21.991Z,20.50
2022-12-11T19:30:49.781Z,22.83
2022-12-11T19:33:17.314Z,23.77
2022-12-11T19:35:45.074Z,23.08
2022-12-11T19:38:15.465Z,22.55
2022-12-11T19:40:43.588Z,23.58
2022-12-11T19:43:11.448Z,23.00
2022-12-11T19:45:38.995Z,23.33
2022-12-11T19:48:06.508Z,23.77
2022-12-11T19:50:35.703Z,21.80
2022-12-11T19:53:03.292Z,21.02
2022-12-11T19:55:33.575Z,21.23
2022-12-11T19:58:00.824Z,21.98
2022-12-11T20:00:28.151Z,24.77
2022-12-11T20:02:55.397Z,22.90
2022-12-11T20:05:23.681Z,31.02
2022-12-11T20:07:50.950Z,28.02
2022-12-11T20:10:20.110Z,29.50
2022-12-11T20:12:47.363Z,23.73
2022-12-11T20:15:16.620Z,23.15
2022-12-11T20:17:44.679Z,26.23
2022-12-11T20:20:12.189Z,24.42
2022-12-11T20:22:39.561Z,22.70
2022-12-11T20:25:07.460Z,23.05
2022-12-11T20:27:34.950Z,24.45
2022-12-11T20:30:02.304Z,24.55
2022-12-11T20:32:34.202Z,25.98
2022-12-11T20:35:01.426Z,23.70
2022-12-11T20:37:29.204Z,23.17
2022-12-11T20:39:56.594Z,23.10
2022-12-11T20:42:24.702Z,23.98
2022-12-11T20:44:54.117Z,21.13
2022-12-11T20:47:21.752Z,22.05
2022-12-11T20:49:50.202Z,25.17
2022-12-11T20:52:17.806Z,22.20
2022-12-11T20:54:45.212Z,22.83
2022-12-11T20:57:13.574Z,26.00
2022-12-11T20:59:40.869Z,20.42
2022-12-11T21:02:09.310Z,20.73
2022-12-11T21:04:41.108Z,23.70
2022-12-11T21:07:09.211Z,23.05
2022-12-11T21:09:36.934Z,22.33
2022-12-11T21:12:04.927Z,21.58
2022-12-11T21:14:32.767Z,21.63
2022-12-11T21:17:00.525Z,20.98
2022-12-11T21:19:27.925Z,20.85
2022-12-11T21:21:56.050Z,20.33
2022-12-11T21:24:27.817Z,22.13
2022-12-11T21:26:56.322Z,20.50
2022-12-11T21:29:26.567Z,19.83
2022-12-11T21:31:53.971Z,20.15
2022-12-11T21:34:25.290Z,18.70
2022-12-11T21:36:56.597Z,20.92
2022-12-11T21:39:25.009Z,20.33
2022-12-11T21:41:53.442Z,21.10
2022-12-11T21:47:09.148Z,20.10
2022-12-11T21:49:36.473Z,20.48
2022-12-11T21:52:03.964Z,19.60
2022-12-11T21:54:31.762Z,20.38
2022-12-11T21:56:58.955Z,20.30
2022-12-11T21:59:31.092Z,22.10
2022-12-11T22:01:58.336Z,20.60
2022-12-11T22:04:25.692Z,21.05
2022-12-11T22:06:53.440Z,20.58
2022-12-11T22:09:20.686Z,19.92
2022-12-11T22:11:49.274Z,19.52
2022-12-11T22:14:18.877Z,19.70
2022-12-11T22:16:46.568Z,18.67
2022-12-11T22:19:14.034Z,20.48
2022-12-11T22:21:41.325Z,18.58
2022-12-11T22:24:08.741Z,20.27
2022-12-11T22:26:36.075Z,22.27
2022-12-11T22:29:03.798Z,64.22
2022-12-11T22:31:31.232Z,26.88
2022-12-11T22:33:58.600Z,23.75
2022-12-11T22:36:26.836Z,30.95
2022-12-11T22:38:54.456Z,22.10
2022-12-11T22:41:31.669Z,23.38
2022-12-11T22:43:59.297Z,19.95
2022-12-11T22:46:28.094Z,20.55
2022-12-11T22:48:55.786Z,25.20
2022-12-11T22:51:23.133Z,25.23
2022-12-11T22:53:50.349Z,27.58
2022-12-11T22:56:17.628Z,21.35
2022-12-11T22:58:44.930Z,24.48
2022-12-11T23:01:13.982Z,21.27
2022-12-11T23:03:41.792Z,22.13
2022-12-11T23:06:11.205Z,25.25
2022-12-11T23:08:39.478Z,21.98
2022-12-11T23:11:12.848Z,22.90
2022-12-11T23:13:40.358Z,20.88
2022-12-11T23:16:09.093Z,21.02
2022-12-11T23:18:36.614Z,21.05
2022-12-11T23:21:04.944Z,21.48
2022-12-11T23:23:32.217Z,19.35
2022-12-11T23:25:59.495Z,21.88
2022-12-11T23:28:26.846Z,19.27
2022-12-11T23:30:54.941Z,19.48
2022-12-11T23:33:22.228Z,20.25
2022-12-11T23:35:51.922Z,22.15
2022-12-11T23:38:20.590Z,21.75
2022-12-11T23:40:47.884Z,19.60
2022-12-11T23:43:15.235Z,24.67
2022-12-11T23:45:46.014Z,20.08
2022-12-11T23:48:13.811Z,19.33
2022-12-11T23:50:41.832Z,21.27
2022-12-11T23:53:09.132Z,19.48
2022-12-11T23:55:36.823Z,20.00
2022-12-11T23:58:04.081Z,20.42
